createdAt,value
2023-05-05T14:49:26.889Z,13.20
2023-05-05T14:51:56.878Z,13.20
2023-05-05T14:54:28.658Z,13.10
2023-05-05T14:56:58.287Z,13.20
2023-05-05T14:59:30.798Z,13.30
2023-05-05T15:02:00.447Z,13.30
2023-05-05T15:04:29.876Z,13.20
2023-05-05T15:06:59.397Z,13.20
2023-05-05T15:09:28.816Z,13.20
2023-05-05T15:11:58.320Z,13.20
2023-05-05T15:14:27.874Z,13.10
2023-05-05T15:16:57.396Z,13.10
2023-05-05T15:19:26.949Z,13.00
2023-05-05T15:21:56.395Z,13.00
2023-05-05T15:24:26.519Z,12.90
2023-05-05T15:26:55.953Z,12.90
2023-05-05T15:29:26.026Z,12.90
2023-05-05T15:32:03.503Z,12.80
2023-05-05T15:34:32.522Z,12.80
2023-05-05T15:37:01.938Z,12.80
2023-05-05T15:39:31.364Z,12.80
2023-05-05T15:42:04.980Z,12.70
2023-05-05T15:44:34.387Z,12.60
2023-05-05T15:47:03.966Z,12.50
2023-05-05T15:49:33.613Z,12.50
2023-05-05T15:52:03.112Z,12.50
2023-05-05T15:54:32.586Z,12.40
2023-05-05T15:57:03.111Z,12.40
2023-05-05T15:59:32.756Z,12.40
2023-05-05T16:02:02.303Z,12.40
2023-05-05T16:04:31.819Z,12.40
2023-05-05T16:07:03.154Z,12.30
2023-05-05T16:09:32.631Z,12.30
2023-05-05T16:12:02.712Z,12.20
2023-05-05T16:14:32.726Z,12.00
2023-05-05T16:17:02.253Z,11.90
2023-05-05T16:19:31.780Z,11.80
2023-05-05T16:22:01.498Z,11.90
2023-05-05T16:24:31.035Z,11.90
2023-05-05T16:27:00.650Z,11.80
2023-05-05T16:29:30.222Z,11.80
2023-05-05T16:31:59.826Z,11.80
2023-05-05T16:34:29.233Z,11.80
2023-05-05T16:36:58.797Z,11.80
2023-05-05T16:39:28.478Z,11.70
2023-05-05T16:41:57.846Z,11.60
2023-05-05T16:44:27.414Z,11.60
2023-05-05T16:46:57.031Z,11.60
2023-05-05T16:49:26.463Z,11.50
2023-05-05T16:51:57.184Z,11.40
2023-05-05T16:54:26.637Z,11.40
2023-05-05T16:56:56.625Z,11.20
2023-05-05T16:59:26.076Z,11.20
2023-05-05T17:01:55.763Z,11.20
2023-05-05T17:04:25.951Z,11.10
2023-05-05T17:06:56.345Z,11.10
2023-05-05T17:09:25.008Z,11.10
2023-05-05T17:11:54.559Z,11.00
2023-05-05T17:14:25.741Z,10.90
2023-05-05T17:16:55.231Z,10.90
2023-05-05T17:19:24.634Z,10.90
2023-05-05T17:21:55.251Z,10.90
2023-05-05T17:24:25.200Z,10.80
2023-05-05T17:26:55.252Z,10.70
2023-05-05T17:29:24.777Z,10.60
2023-05-05T17:31:54.973Z,10.70
2023-05-05T17:34:24.728Z,10.60
2023-05-05T17:36:54.088Z,10.60
2023-05-05T17:39:23.583Z,10.60
2023-05-05T17:41:53.072Z,10.60
2023-05-05T17:44:22.719Z,10.60
2023-05-05T17:46:52.259Z,10.50
2023-05-05T17:49:22.265Z,10.50
2023-05-05T17:51:51.911Z,10.40
2023-05-05T17:54:21.388Z,10.40
2023-05-05T17:56:51.420Z,10.30
2023-05-05T17:59:20.827Z,10.30
2023-05-05T18:01:50.280Z,10.20
2023-05-05T18:04:19.788Z,10.10
2023-05-05T18:06:49.216Z,10.00
2023-05-05T18:09:20.577Z,10.00
2023-05-05T18:11:53.800Z,10.00
2023-05-05T18:14:23.813Z,10.00
2023-05-05T18:16:54.046Z,10.00
2023-05-05T18:19:24.687Z,9.90
2023-05-05T18:21:54.963Z,9.90
2023-05-05T18:24:24.705Z,9.80
2023-05-05T18:26:54.322Z,9.80
2023-05-05T18:29:23.811Z,9.70
2023-05-05T18:31:54.614Z,9.60
2023-05-05T18:34:24.624Z,9.70
2023-05-05T18:36:54.477Z,9.70
2023-05-05T18:39:24.415Z,9.60
2023-05-05T18:41:53.915Z,9.60
2023-05-05T18:44:23.442Z,9.60
2023-05-05T18:46:52.973Z,9.60
2023-05-05T18:49:23.311Z,9.60
2023-05-05T18:51:52.214Z,9.60
2023-05-05T18:54:22.113Z,9.50
2023-05-05T18:56:51.762Z,9.50
2023-05-05T18:59:21.780Z,9.50
2023-05-05T19:01:51.180Z,9.50
2023-05-05T19:04:30.745Z,9.50
2023-05-05T19:06:52.643Z,9.50
2023-05-05T19:09:22.421Z,9.50
2023-05-05T19:11:51.904Z,9.50
2023-05-05T19:14:22.069Z,9.40
2023-05-05T19:16:51.670Z,9.40
2023-05-05T19:19:21.044Z,9.40
2023-05-05T19:21:50.401Z,9.30
2023-05-05T19:24:19.809Z,9.30
2023-05-05T19:26:49.280Z,9.20
2023-05-05T19:29:19.012Z,9.20
2023-05-05T19:31:48.413Z,9.20
2023-05-05T19:34:17.930Z,9.30
2023-05-05T19:36:47.409Z,9.20
2023-05-05T19:39:16.827Z,9.20
2023-05-05T19:41:46.514Z,9.20
2023-05-05T19:44:16.513Z,9.20
2023-05-05T19:46:46.241Z,9.10
2023-05-05T19:49:15.616Z,9.00
2023-05-05T19:51:46.752Z,9.00
2023-05-05T19:54:16.407Z,9.10
2023-05-05T19:56:45.936Z,9.10
2023-05-05T19:59:15.401Z,9.10
2023-05-05T20:01:45.008Z,9.10
2023-05-05T20:04:14.501Z,9.10
2023-05-05T20:06:43.930Z,9.10
2023-05-05T20:09:13.580Z,9.00
2023-05-05T20:11:43.015Z,9.10
2023-05-05T20:14:12.411Z,9.10
2023-05-05T20:16:41.830Z,9.10
2023-05-05T20:19:11.605Z,9.00
2023-05-05T20:21:41.083Z,9.00
2023-05-05T20:24:10.768Z,9.10
2023-05-05T20:26:40.302Z,9.00
2023-05-05T20:29:09.919Z,9.00
2023-05-05T20:31:39.608Z,9.00
2023-05-05T20:34:09.057Z,9.00
2023-05-05T20:36:38.415Z,9.00
2023-05-05T20:39:08.163Z,9.00
2023-05-05T20:41:39.219Z,9.00
2023-05-05T20:44:11.906Z,9.00
2023-05-05T20:46:41.476Z,9.00
2023-05-05T20:49:10.872Z,9.00
2023-05-05T20:51:40.275Z,9.00
2023-05-05T20:54:10.242Z,8.90
2023-05-05T20:56:39.730Z,8.90
2023-05-05T20:59:09.087Z,8.80
2023-05-05T21:01:38.576Z,8.80
2023-05-05T21:04:08.026Z,8.90
2023-05-05T21:06:37.431Z,8.90
2023-05-05T21:09:06.937Z,8.80
2023-05-05T21:11:36.313Z,8.80
2023-05-05T21:14:06.123Z,8.80
2023-05-05T21:16:35.643Z,8.90
2023-05-05T21:19:04.967Z,8.90
2023-05-05T21:21:34.455Z,8.80
2023-05-05T21:24:05.516Z,8.80
2023-05-05T21:26:35.079Z,8.90
2023-05-05T21:29:04.544Z,8.90
2023-05-05T21:31:34.042Z,8.90
2023-05-05T21:34:04.012Z,8.90
2023-05-05T21:36:33.920Z,8.90
2023-05-05T21:39:03.597Z,8.90
2023-05-05T21:41:33.250Z,8.90
2023-05-05T21:44:02.806Z,8.90
2023-05-05T21:46:32.250Z,8.90
2023-05-05T21:49:03.453Z,8.90
2023-05-05T21:51:34.404Z,8.90
2023-05-05T21:54:03.937Z,8.90
2023-05-05T21:56:34.493Z,8.90
2023-05-05T21:59:05.496Z,8.90
2023-05-05T22:01:35.033Z,8.90
2023-05-05T22:04:04.730Z,8.80
2023-05-05T22:06:34.533Z,8.80
2023-05-05T22:09:04.090Z,8.90
2023-05-05T22:11:33.595Z,8.90
2023-05-05T22:14:03.158Z,9.00
2023-05-05T22:16:32.887Z,9.00
2023-05-05T22:19:02.404Z,9.00
2023-05-05T22:21:32.024Z,9.00
2023-05-05T22:24:01.411Z,8.90
2023-05-05T22:26:31.048Z,8.90
2023-05-05T22:29:00.789Z,8.90
2023-05-05T22:31:30.813Z,8.90
2023-05-05T22:34:00.473Z,8.90
2023-05-05T22:36:29.959Z,8.80
2023-05-05T22:38:59.484Z,8.90
2023-05-05T22:41:28.944Z,8.80
2023-05-05T22:43:58.411Z,8.80
2023-05-05T22:46:28.521Z,8.80
2023-05-05T22:48:58.041Z,8.80
2023-05-05T22:51:29.431Z,8.80
2023-05-05T22:53:59.164Z,8.70
2023-05-05T22:56:28.590Z,8.70
2023-05-05T22:58:57.946Z,8.70
2023-05-05T23:01:27.496Z,8.60
2023-05-05T23:03:57.694Z,8.60
2023-05-05T23:06:30.009Z,8.50
2023-05-05T23:08:59.360Z,8.50
2023-05-05T23:11:28.834Z,8.40
2023-05-05T23:13:58.264Z,8.40
2023-05-05T23:16:27.884Z,8.40
2023-05-05T23:18:57.284Z,8.40
2023-05-05T23:21:26.643Z,8.40
2023-05-05T23:23:56.122Z,8.40
2023-05-05T23:26:25.709Z,8.30
2023-05-05T23:28:55.244Z,8.30
2023-05-05T23:31:24.809Z,8.30
2023-05-05T23:33:54.579Z,8.30
2023-05-05T23:36:24.036Z,8.30
2023-05-05T23:38:53.492Z,8.30
2023-05-05T23:41:22.925Z,8.30
2023-05-05T23:43:52.564Z,8.40
2023-05-05T23:46:22.061Z,8.40
2023-05-05T23:48:55.140Z,8.40
2023-05-05T23:51:24.839Z,8.40
2023-05-05T23:53:54.564Z,8.40
2023-05-05T23:56:25.047Z,8.40
2023-05-05T23:58:53.847Z,8.30
